Time;durP1;ratioP1;P1;durP2;ratioP2;P2;SDS_P1;SDS_P2;PMS_P1;PMS_P2;Temp;Humidity;BMP_temperature;BMP_pressure;BME280_temperature;BME280_humidity;BME280_pressure;Samples;Min_cycle;Max_cycle;Signal;HPM_P1;HPM_P2
2022/04/06 00:00:35;;;;;;;9.30;4.82;;;9.50;99.90;;;;;;4916809;29;20478;-89
2022/04/06 00:03:05;;;;;;;7.97;4.18;;;9.50;99.90;;;;;;4916782;29;20024;-88
2022/04/06 00:05:31;;;;;;;8.98;3.75;;;9.40;99.90;;;;;;4916708;29;20036;-89
2022/04/06 00:08:20;;;;;;;11.05;5.00;;;9.40;99.90;;;;;;4916472;29;20123;-90
2022/04/06 00:10:46;;;;;;;14.23;4.85;;;9.20;99.90;;;;;;4916564;29;20514;-89
2022/04/06 00:13:13;;;;;;;14.77;4.10;;;9.30;99.90;;;;;;4916455;29;20036;-88
2022/04/06 00:15:40;;;;;;;6.60;3.90;;;9.30;99.90;;;;;;4900687;29;20051;-91
2022/04/06 00:18:09;;;;;;;11.57;4.30;;;9.40;99.90;;;;;;4917861;29;20118;-89
2022/04/06 00:20:37;;;;;;;14.57;4.78;;;9.50;99.90;;;;;;4886300;29;20136;-89
2022/04/06 00:23:03;;;;;;;13.70;4.95;;;9.50;99.90;;;;;;4904450;29;20115;-88
2022/04/06 00:25:32;;;;;;;7.60;4.50;;;9.50;99.90;;;;;;4920044;29;20060;-89
2022/04/06 00:27:59;;;;;;;7.57;4.10;;;9.50;99.90;;;;;;4919881;29;20095;-90
2022/04/06 00:30:26;;;;;;;8.30;4.18;;;9.50;99.90;;;;;;4904093;29;20040;-89
2022/04/06 00:32:52;;;;;;;11.57;4.20;;;9.40;99.90;;;;;;4919803;29;20127;-89
2022/04/06 00:35:28;;;;;;;7.45;4.13;;;9.40;99.90;;;;;;4904092;29;20092;-89
2022/04/06 00:37:56;;;;;;;7.00;3.85;;;9.40;99.90;;;;;;4919796;29;20123;-88
2022/04/06 00:40:23;;;;;;;9.35;4.55;;;9.30;99.90;;;;;;4919926;29;20052;-89
2022/04/06 00:42:51;;;;;;;9.93;4.15;;;9.30;99.90;;;;;;4919709;29;20035;-90
2022/04/06 00:45:18;;;;;;;8.05;4.60;;;9.30;99.90;;;;;;4919678;29;20028;-89
2022/04/06 00:47:45;;;;;;;12.38;4.07;;;9.30;99.90;;;;;;4919595;29;20031;-88
2022/04/06 00:50:12;;;;;;;8.90;4.45;;;9.20;99.90;;;;;;4919464;29;20044;-89
2022/04/06 00:52:39;;;;;;;8.60;4.13;;;9.20;99.90;;;;;;4919722;29;20024;-88
2022/04/06 00:55:08;;;;;;;7.10;4.00;;;9.10;99.90;;;;;;4919513;29;20573;-91
2022/04/06 00:57:35;;;;;;;13.88;4.90;;;9.20;99.90;;;;;;4919619;29;20036;-89
2022/04/06 01:00:05;;;;;;;7.95;4.25;;;9.20;99.90;;;;;;4919578;29;20115;-89
2022/04/06 01:02:33;;;;;;;10.05;4.13;;;9.20;99.90;;;;;;4919518;29;20482;-90
2022/04/06 01:04:59;;;;;;;11.18;4.13;;;9.30;99.90;;;;;;4919315;29;20028;-89
2022/04/06 01:07:27;;;;;;;13.60;5.70;;;9.30;99.90;;;;;;4904803;29;20024;-88
2022/04/06 01:09:53;;;;;;;11.98;4.68;;;9.30;99.90;;;;;;4920103;29;20036;-88
2022/04/06 01:12:22;;;;;;;7.93;4.47;;;9.40;99.90;;;;;;4919268;29;20111;-90
2022/04/06 01:15:26;;;;;;;11.18;4.72;;;9.40;99.90;;;;;;4919196;29;20083;-89
2022/04/06 01:17:53;;;;;;;9.85;4.57;;;9.40;99.90;;;;;;4888036;29;20028;-89
2022/04/06 01:20:20;;;;;;;5.93;3.72;;;9.40;99.90;;;;;;4919005;29;20048;-89
2022/04/06 01:22:46;;;;;;;9.60;3.72;;;9.40;99.90;;;;;;4919056;29;20028;-88
2022/04/06 01:25:16;;;;;;;8.30;3.60;;;9.40;99.90;;;;;;4903174;29;20036;-90
2022/04/06 01:27:43;;;;;;;9.68;4.07;;;9.30;99.90;;;;;;4903059;29;20079;-91
2022/04/06 01:30:09;;;;;;;12.93;4.55;;;9.40;99.90;;;;;;4918638;29;20043;-90
2022/04/06 01:32:36;;;;;;;7.57;3.92;;;9.40;99.90;;;;;;4918724;29;20502;-89
2022/04/06 01:35:04;;;;;;;12.95;4.38;;;9.40;99.90;;;;;;4918912;29;20064;-90
2022/04/06 01:37:35;;;;;;;6.70;4.20;;;9.40;99.90;;;;;;4918817;29;20028;-90
2022/04/06 01:40:11;;;;;;;10.32;4.82;;;9.30;99.90;;;;;;4918685;29;20091;-89
2022/04/06 01:42:39;;;;;;;11.07;3.90;;;9.30;99.90;;;;;;4918641;29;20059;-89
2022/04/06 01:45:07;;;;;;;12.45;3.70;;;9.40;99.90;;;;;;4919241;29;20028;-90
2022/04/06 01:47:37;;;;;;;8.77;4.32;;;9.40;99.90;;;;;;4918788;29;20028;-90
2022/04/06 01:52:58;;;;;;;10.68;4.00;;;9.40;99.90;;;;;;4902908;29;20076;-89
2022/04/06 01:55:31;;;;;;;11.38;4.78;;;9.40;99.90;;;;;;4918373;29;20028;-89
2022/04/06 01:57:59;;;;;;;7.93;4.00;;;9.40;99.90;;;;;;4918226;29;20076;-89
2022/04/06 02:00:27;;;;;;;6.82;3.33;;;9.30;99.90;;;;;;4902554;29;20076;-89
2022/04/06 02:03:16;;;;;;;10.68;4.90;;;9.30;99.90;;;;;;4899950;29;20027;-88
2022/04/06 02:05:42;;;;;;;11.85;4.18;;;9.30;99.90;;;;;;4902430;29;20032;-90
2022/04/06 02:08:10;;;;;;;6.78;3.80;;;9.40;99.90;;;;;;4918045;29;20028;-89
2022/04/06 02:10:39;;;;;;;10.70;3.72;;;9.50;99.90;;;;;;4902653;29;20107;-90
2022/04/06 02:13:06;;;;;;;8.48;4.05;;;9.50;99.90;;;;;;4918422;29;20500;-91
2022/04/06 02:15:33;;;;;;;8.45;4.10;;;9.40;99.90;;;;;;4918354;29;20036;-87
2022/04/06 02:18:17;;;;;;;6.63;3.78;;;9.40;99.90;;;;;;4917927;29;20024;-89
2022/04/06 02:20:44;;;;;;;17.50;4.35;;;9.40;99.90;;;;;;4917989;29;20032;-89
2022/04/06 02:23:10;;;;;;;7.28;4.05;;;9.40;99.90;;;;;;4917931;29;20063;-89
2022/04/06 02:25:37;;;;;;;11.25;3.85;;;9.30;99.90;;;;;;4902084;29;20036;-89
2022/04/06 02:28:07;;;;;;;10.15;4.43;;;9.40;99.90;;;;;;4917841;29;20020;-88
2022/04/06 02:30:33;;;;;;;9.85;4.00;;;9.40;99.90;;;;;;4917740;29;20532;-88
2022/04/06 02:33:00;;;;;;;5.43;2.90;;;9.40;99.90;;;;;;4886669;29;20455;-89
2022/04/06 02:35:26;;;;;;;10.00;3.53;;;9.50;99.90;;;;;;4864785;29;20213;-88
2022/04/06 02:37:53;;;;;;;6.68;3.17;;;9.50;99.90;;;;;;4880010;29;20033;-87
2022/04/06 02:40:20;;;;;;;8.27;3.67;;;9.60;99.90;;;;;;4879518;29;20037;-89
2022/04/06 02:42:47;;;;;;;10.27;3.63;;;9.50;99.90;;;;;;4880115;29;20084;-89
2022/04/06 02:45:13;;;;;;;10.10;4.25;;;9.60;99.90;;;;;;4880125;29;20060;-89
2022/04/06 02:47:40;;;;;;;6.38;3.80;;;9.70;99.90;;;;;;4880013;29;20021;-90
2022/04/06 02:50:07;;;;;;;7.85;3.63;;;9.60;99.90;;;;;;4880023;29;20053;-88
2022/04/06 02:52:37;;;;;;;8.20;3.97;;;9.70;99.90;;;;;;4879961;29;20033;-89
2022/04/06 02:55:09;;;;;;;9.35;4.05;;;9.70;99.90;;;;;;4879966;29;20033;-89
2022/04/06 02:57:36;;;;;;;10.50;4.68;;;9.80;99.90;;;;;;4881514;29;20424;-88
2022/04/06 03:00:04;;;;;;;8.45;3.95;;;9.70;99.90;;;;;;4880103;29;20028;-88
2022/04/06 03:02:30;;;;;;;7.72;3.63;;;9.70;99.90;;;;;;4879780;29;20033;-88
2022/04/06 03:04:57;;;;;;;8.18;3.72;;;9.70;99.90;;;;;;4879795;29;20037;-89
2022/04/06 03:07:24;;;;;;;11.15;3.78;;;9.70;99.90;;;;;;4879688;29;20036;-88
2022/04/06 03:09:50;;;;;;;13.63;4.30;;;9.80;99.90;;;;;;4879638;29;20539;-90
2022/04/06 03:12:17;;;;;;;12.68;3.58;;;9.80;99.90;;;;;;4879471;29;20048;-89
2022/04/06 03:14:43;;;;;;;8.35;4.10;;;9.70;99.90;;;;;;4879408;29;20032;-89
2022/04/06 03:17:16;;;;;;;13.85;6.05;;;9.70;99.90;;;;;;4879397;29;20490;-89
2022/04/06 03:19:46;;;;;;;11.43;4.75;;;9.70;99.90;;;;;;4879259;29;20525;-89
2022/04/06 03:22:17;;;;;;;7.65;3.58;;;9.80;99.90;;;;;;4879544;29;20033;-89
2022/04/06 03:25:21;;;;;;;10.32;4.32;;;9.70;99.90;;;;;;4879531;29;20066;-89
2022/04/06 03:27:48;;;;;;;11.40;4.70;;;9.80;99.90;;;;;;4864261;29;20418;-89
2022/04/06 03:30:15;;;;;;;10.13;4.00;;;9.80;99.90;;;;;;4879378;29;20132;-90
2022/04/06 03:32:42;;;;;;;8.77;4.65;;;9.60;99.90;;;;;;4895781;29;20054;-89
2022/04/06 03:35:13;;;;;;;13.00;3.80;;;9.50;99.90;;;;;;4913911;29;20383;-90
2022/04/06 03:37:41;;;;;;;9.80;3.72;;;9.30;99.90;;;;;;4913786;29;20127;-90
2022/04/06 03:40:08;;;;;;;9.70;4.20;;;9.20;99.90;;;;;;4913925;29;20474;-92
2022/04/06 03:42:36;;;;;;;6.00;3.58;;;9.20;99.90;;;;;;4913576;29;20048;-89
2022/04/06 03:45:06;;;;;;;8.48;3.85;;;9.20;99.90;;;;;;4913943;29;20028;-89
2022/04/06 03:47:34;;;;;;;7.72;4.18;;;9.20;99.90;;;;;;4913961;29;20037;-88
2022/04/06 03:50:02;;;;;;;5.93;3.33;;;9.20;99.90;;;;;;4913567;29;20096;-92
2022/04/06 03:52:29;;;;;;;7.43;3.20;;;9.20;99.90;;;;;;4915615;29;20115;-88
2022/04/06 03:54:56;;;;;;;6.38;3.40;;;9.30;99.90;;;;;;4917507;29;20032;-89
2022/04/06 03:57:29;;;;;;;5.25;2.70;;;9.20;99.90;;;;;;4917463;29;20474;-87
2022/04/06 03:59:58;;;;;;;6.22;2.97;;;9.30;99.90;;;;;;4917358;29;20128;-88
2022/04/06 04:02:25;;;;;;;7.32;3.42;;;9.30;99.90;;;;;;4917627;29;20038;-84
2022/04/06 04:04:54;;;;;;;9.98;3.60;;;9.20;99.90;;;;;;4917466;29;20037;-87
2022/04/06 04:07:24;;;;;;;8.32;3.42;;;9.30;99.90;;;;;;4917240;29;20032;-87
2022/04/06 04:09:51;;;;;;;6.63;3.28;;;9.30;99.90;;;;;;4917334;29;20041;-87
2022/04/06 04:12:18;;;;;;;6.45;3.05;;;9.30;99.90;;;;;;4917101;29;20032;-87
2022/04/06 04:14:46;;;;;;;7.15;3.17;;;9.30;99.90;;;;;;4917094;29;20028;-86
2022/04/06 04:17:18;;;;;;;6.75;3.42;;;9.30;99.90;;;;;;4921336;29;20044;-94
2022/04/06 04:19:45;;;;;;;6.53;3.25;;;9.30;99.90;;;;;;4918038;29;20119;-88
2022/04/06 04:22:22;;;;;;;8.60;3.65;;;9.40;99.90;;;;;;4927432;23;20104;-92
2022/04/06 04:27:33;;;;;;;16.15;4.07;;;9.30;99.90;;;;;;4977742;23;20510;-92
2022/04/06 04:30:03;;;;;;;6.90;3.20;;;9.40;99.90;;;;;;4900910;29;20049;-89
2022/04/06 04:32:30;;;;;;;11.95;3.97;;;9.30;99.90;;;;;;4884916;29;20032;-88
2022/04/06 04:34:58;;;;;;;4.97;2.95;;;9.30;99.90;;;;;;4866014;29;20081;-88
2022/04/06 04:37:25;;;;;;;7.50;2.85;;;9.40;99.90;;;;;;4866125;29;20372;-89
2022/04/06 04:39:52;;;;;;;5.40;3.22;;;9.30;99.90;;;;;;4866139;29;20487;-89
2022/04/06 04:42:19;;;;;;;6.57;3.47;;;9.40;99.90;;;;;;4862020;29;20037;-88
2022/04/06 04:44:46;;;;;;;9.98;3.63;;;9.40;99.90;;;;;;4866018;29;20080;-90
2022/04/06 04:47:13;;;;;;;12.23;3.42;;;9.40;99.90;;;;;;4869641;29;20037;-88
2022/04/06 04:49:43;;;;;;;9.68;3.65;;;9.50;99.90;;;;;;4867148;29;20602;-90
2022/04/06 04:52:09;;;;;;;13.13;3.90;;;9.50;99.90;;;;;;4866028;29;20514;-91
2022/04/06 04:54:36;;;;;;;6.75;3.85;;;9.60;99.90;;;;;;4865686;29;20045;-90
2022/04/06 04:57:03;;;;;;;9.10;3.60;;;9.50;99.90;;;;;;4868966;29;20025;-91
2022/04/06 04:59:45;;;;;;;6.68;3.13;;;9.40;99.90;;;;;;4866004;29;20029;-91
2022/04/06 05:02:15;;;;;;;9.80;4.38;;;9.40;99.90;;;;;;4865995;29;20037;-89
2022/04/06 05:04:41;;;;;;;6.35;3.55;;;9.50;99.90;;;;;;4865300;29;20033;-89
2022/04/06 05:07:11;;;;;;;5.20;2.80;;;9.50;99.90;;;;;;4861887;29;20144;-91
2022/04/06 05:09:37;;;;;;;6.55;4.10;;;9.60;99.90;;;;;;4850696;29;20041;-89
2022/04/06 05:12:04;;;;;;;8.23;3.75;;;9.50;99.90;;;;;;4866025;29;20039;-89
2022/04/06 05:14:31;;;;;;;6.88;3.03;;;9.60;99.90;;;;;;4850796;29;20099;-89
2022/04/06 05:16:58;;;;;;;9.57;3.58;;;9.80;99.90;;;;;;4866087;29;20036;-89
2022/04/06 05:19:24;;;;;;;6.85;3.50;;;9.90;99.90;;;;;;4866135;29;20044;-90
2022/04/06 05:22:13;;;;;;;10.55;4.50;;;9.90;99.90;;;;;;4868540;29;20029;-92
2022/04/06 05:24:39;;;;;;;5.25;3.00;;;10.00;99.90;;;;;;4852269;29;20105;-91
2022/04/06 05:27:06;;;;;;;7.43;3.75;;;10.00;99.90;;;;;;4871279;29;20096;-92
2022/04/06 05:29:34;;;;;;;7.30;3.17;;;10.00;99.90;;;;;;4887036;29;20132;-92
2022/04/06 05:32:02;;;;;;;5.93;3.33;;;10.10;99.90;;;;;;4888228;29;20039;-90
2022/04/06 05:34:30;;;;;;;6.97;2.97;;;10.10;99.90;;;;;;4887851;29;20035;-90
2022/04/06 05:36:56;;;;;;;7.25;3.17;;;10.30;99.90;;;;;;4887907;29;20047;-89
2022/04/06 05:39:26;;;;;;;6.35;2.97;;;10.30;99.90;;;;;;4887560;29;20036;-88
2022/04/06 05:41:52;;;;;;;6.40;3.03;;;10.30;99.90;;;;;;4887368;29;20474;-89
2022/04/06 05:44:19;;;;;;;9.80;2.90;;;10.40;99.90;;;;;;4889770;29;20042;-89
2022/04/06 05:50:23;;;;;;;7.60;3.70;;;10.10;99.90;;;;;;5008009;23;20486;-90
2022/04/06 05:52:49;;;;;;;4.22;3.28;;;10.30;99.90;;;;;;4902676;29;20036;-89
2022/04/06 05:55:16;;;;;;;6.40;3.17;;;10.50;99.90;;;;;;4902975;29;20035;-92
2022/04/06 05:57:42;;;;;;;7.43;2.70;;;10.50;99.90;;;;;;4902654;29;20036;-90
2022/04/06 06:00:09;;;;;;;9.20;4.03;;;10.60;99.90;;;;;;4897374;29;20025;-89
2022/04/06 06:03:16;;;;;;;15.57;3.35;;;10.60;99.90;;;;;;4899335;29;20032;-90
2022/04/06 06:05:43;;;;;;;6.10;3.58;;;10.70;99.90;;;;;;4883682;29;20029;-89
2022/04/06 06:08:10;;;;;;;8.13;3.65;;;10.90;99.90;;;;;;4899386;29;20025;-90
2022/04/06 06:10:38;;;;;;;4.68;2.60;;;11.10;99.90;;;;;;4899245;29;20044;-89
2022/04/06 06:13:04;;;;;;;5.10;2.65;;;11.20;99.90;;;;;;4884139;29;20032;-91
2022/04/06 06:15:31;;;;;;;6.25;3.22;;;11.30;99.90;;;;;;4882989;29;20496;-89
2022/04/06 06:17:57;;;;;;;6.70;3.13;;;11.40;99.90;;;;;;4861840;29;20415;-91
2022/04/06 06:20:24;;;;;;;7.35;2.97;;;11.50;99.90;;;;;;4877680;29;20052;-91
2022/04/06 06:22:51;;;;;;;5.43;2.15;;;11.60;99.90;;;;;;4879861;29;20160;-91
2022/04/06 06:25:17;;;;;;;6.20;2.38;;;11.80;99.90;;;;;;4879952;29;20112;-91
2022/04/06 06:28:21;;;;;;;4.63;2.50;;;11.90;99.90;;;;;;4880311;29;20037;-93
2022/04/06 06:30:48;;;;;;;7.80;2.95;;;11.90;99.90;;;;;;4880464;29;20051;-91
2022/04/06 06:33:16;;;;;;;3.60;2.55;;;12.20;99.90;;;;;;4880413;29;20037;-90
2022/04/06 06:35:45;;;;;;;9.55;3.65;;;12.30;99.90;;;;;;4880383;29;20048;-91
2022/04/06 06:38:12;;;;;;;8.20;2.70;;;12.50;99.90;;;;;;4890449;29;20157;-90
2022/04/06 06:40:39;;;;;;;6.93;2.75;;;12.80;99.90;;;;;;4885720;29;20037;-90
2022/04/06 06:43:05;;;;;;;6.35;2.67;;;13.00;99.90;;;;;;4879516;29;20093;-92
2022/04/06 06:45:32;;;;;;;5.57;2.83;;;13.00;99.90;;;;;;4879293;29;20499;-92
2022/04/06 06:47:59;;;;;;;4.90;1.63;;;13.10;99.90;;;;;;4879315;29;20115;-91
2022/04/06 06:50:25;;;;;;;6.75;2.42;;;13.50;99.90;;;;;;4879134;29;20053;-92
2022/04/06 06:52:52;;;;;;;5.15;1.63;;;13.90;99.90;;;;;;4848300;29;20062;-90
2022/04/06 06:55:19;;;;;;;2.90;1.52;;;14.00;99.90;;;;;;4891911;29;20043;-93
2022/04/06 06:57:47;;;;;;;3.08;1.25;;;14.10;99.90;;;;;;4901668;29;20079;-93
2022/04/06 07:00:14;;;;;;;3.17;1.33;;;14.10;99.90;;;;;;4901490;29;20032;-92
2022/04/06 07:20:07;;;;;;;1.27;0.80;;;15.00;99.90;;;;;;4909769;29;20072;-93
2022/04/06 07:22:55;;;;;;;1.70;0.60;;;15.30;99.90;;;;;;4893099;29;20120;-93
2022/04/06 07:25:40;;;;;;;1.38;0.65;;;15.30;99.90;;;;;;4879024;29;20097;-93
2022/04/06 07:28:08;;;;;;;1.60;0.90;;;15.30;99.90;;;;;;4873913;29;20124;-93
2022/04/06 07:30:35;;;;;;;1.67;0.85;;;15.80;99.90;;;;;;4878067;29;20049;-94
2022/04/06 07:39:12;;;;;;;0.50;0.50;;;16.40;99.90;;;;;;5343797;23;20115;-93
2022/04/06 07:42:19;;;;;;;5.63;1.25;;;16.80;99.90;;;;;;4896814;29;20067;-93
2022/04/06 07:55:17;;;;;;;1.20;0.60;;;17.30;99.90;;;;;;5124253;23;20487;-94
2022/04/06 07:57:44;;;;;;;1.65;0.98;;;17.40;99.90;;;;;;4867517;29;20029;-92
2022/04/06 08:19:27;;;;;;;3.50;0.73;;;17.70;99.90;;;;;;831616;23;20222;-93
2022/04/06 08:25:44;;;;;;;0.80;0.70;;;18.20;99.90;;;;;;4847896;29;20046;-90
2022/04/06 08:28:10;;;;;;;0.63;0.50;;;17.70;99.90;;;;;;4871035;29;20065;-90
2022/04/06 08:30:42;;;;;;;1.65;0.95;;;17.20;99.90;;;;;;4848540;29;20068;-92
2022/04/06 08:33:45;;;;;;;1.48;0.75;;;17.70;99.90;;;;;;4860271;29;20082;-89
2022/04/06 08:36:12;;;;;;;1.13;0.90;;;17.40;99.90;;;;;;4844956;29;20424;-91
2022/04/06 08:38:39;;;;;;;2.20;0.77;;;18.00;99.90;;;;;;4845664;29;20030;-89
2022/04/06 08:41:09;;;;;;;5.18;1.08;;;18.30;99.90;;;;;;4848575;29;20416;-89
2022/04/06 08:44:13;;;;;;;1.40;0.93;;;17.90;99.90;;;;;;4851772;29;20028;-90
2022/04/06 08:46:42;;;;;;;1.77;1.05;;;17.80;99.90;;;;;;4866613;29;20036;-90
2022/04/06 08:49:16;;;;;;;1.23;0.68;;;18.20;99.90;;;;;;4863746;29;20061;-89
2022/04/06 08:51:45;;;;;;;1.25;0.60;;;17.80;99.90;;;;;;4848077;29;20377;-92
2022/04/06 08:54:12;;;;;;;3.55;0.82;;;18.00;99.90;;;;;;4844416;29;20499;-91
2022/04/06 08:56:43;;;;;;;2.75;0.85;;;17.80;99.90;;;;;;4846906;29;20108;-94
2022/04/06 08:59:10;;;;;;;3.08;0.80;;;17.50;99.90;;;;;;4846493;29;20037;-93
2022/04/06 09:01:36;;;;;;;1.00;0.80;;;18.00;99.90;;;;;;4854459;29;20024;-91
2022/04/06 09:04:03;;;;;;;1.15;0.52;;;18.00;99.90;;;;;;4881606;29;20083;-90
2022/04/06 09:06:43;;;;;;;2.05;1.02;;;17.90;99.90;;;;;;4883869;29;20077;-90
2022/04/06 09:09:10;;;;;;;7.18;0.98;;;17.90;99.90;;;;;;4881703;29;20033;-90
2022/04/06 09:11:44;;;;;;;2.42;0.57;;;17.90;99.90;;;;;;4884625;29;20032;-91
2022/04/06 09:14:11;;;;;;;;;;;18.00;99.90;;;;;;4882095;29;20030;-91
2022/04/06 09:16:38;;;;;;;1.42;0.70;;;18.10;99.90;;;;;;4881492;29;20347;-89
2022/04/06 09:19:13;;;;;;;2.22;0.68;;;17.90;99.90;;;;;;4881483;29;20037;-89
2022/04/06 09:21:49;;;;;;;1.17;0.70;;;17.60;99.90;;;;;;4855320;29;20128;-93
2022/04/06 09:24:18;;;;;;;6.22;0.80;;;17.50;99.90;;;;;;4863015;29;20421;-90
2022/04/06 09:26:55;;;;;;;3.08;0.93;;;17.40;99.90;;;;;;4865900;29;20029;-90
2022/04/06 09:29:21;;;;;;;1.05;0.65;;;17.50;99.90;;;;;;4865941;29;20037;-90
2022/04/06 09:31:49;;;;;;;1.83;0.63;;;17.40;99.90;;;;;;4865781;29;20072;-91
2022/04/06 09:34:19;;;;;;;1.40;0.70;;;17.60;99.90;;;;;;4865705;29;20044;-90
2022/04/06 09:36:45;;;;;;;2.33;0.50;;;17.40;99.90;;;;;;4865506;29;20033;-90
2022/04/06 09:39:12;;;;;;;1.50;0.82;;;17.50;99.90;;;;;;4865951;29;20410;-90
2022/04/06 09:42:02;;;;;;;1.02;0.60;;;17.50;99.90;;;;;;4865814;29;20491;-90
2022/04/06 09:50:27;;;;;;;0.45;0.43;;;17.80;99.90;;;;;;4880761;29;20049;-92
2022/04/06 09:52:57;;;;;;;0.50;0.43;;;17.80;99.90;;;;;;4847378;29;20048;-91
2022/04/06 09:55:24;;;;;;;2.10;0.55;;;17.80;99.90;;;;;;4865385;29;20076;-90
2022/04/06 09:57:53;;;;;;;0.77;0.47;;;17.90;99.90;;;;;;4865475;29;20033;-91
2022/04/06 10:00:21;;;;;;;1.45;0.52;;;18.00;99.90;;;;;;4865331;29;20044;-90
2022/04/06 10:02:55;;;;;;;2.03;0.75;;;17.60;99.90;;;;;;4865156;29;20037;-91
2022/04/06 10:05:23;;;;;;;3.03;0.70;;;17.50;99.90;;;;;;4865513;29;20033;-90
2022/04/06 10:07:52;;;;;;;0.40;0.30;;;17.80;99.90;;;;;;4865236;29;20029;-91
2022/04/06 10:10:23;;;;;;;1.40;0.30;;;18.10;99.90;;;;;;4865174;29;20495;-89
2022/04/06 10:12:50;;;;;;;0.35;0.35;;;18.20;99.90;;;;;;4865239;29;20037;-92
2022/04/06 10:15:18;;;;;;;0.22;0.22;;;18.30;99.90;;;;;;4865168;29;20518;-91
2022/04/06 10:17:45;;;;;;;1.92;0.60;;;18.50;99.90;;;;;;4865405;29;20037;-91
2022/04/06 10:20:25;;;;;;;1.58;0.50;;;18.50;99.90;;;;;;4873482;29;20084;-90
2022/04/06 10:23:07;;;;;;;1.00;0.50;;;18.40;99.90;;;;;;4892148;29;20012;-91
2022/04/06 10:25:36;;;;;;;1.10;0.45;;;18.40;99.90;;;;;;4886577;29;20051;-91
2022/04/06 10:28:11;;;;;;;1.17;0.50;;;18.60;99.90;;;;;;4883650;29;20035;-91
2022/04/06 10:30:38;;;;;;;;;;;18.80;99.90;;;;;;4883678;29;20127;-91
2022/04/06 10:33:28;;;;;;;1.83;0.70;;;19.00;99.90;;;;;;4883291;29;19912;-92
2022/04/06 10:36:20;;;;;;;0.75;0.75;;;19.20;99.90;;;;;;4808705;29;20042;-90
2022/04/06 10:39:08;;;;;;;4.88;0.63;;;19.20;99.90;;;;;;4809203;29;20034;-92
2022/04/06 10:41:41;;;;;;;1.58;0.68;;;19.20;99.90;;;;;;4809302;29;20042;-92
2022/04/06 10:44:37;;;;;;;1.10;0.50;;;19.10;99.90;;;;;;4809220;29;20034;-92
2022/04/06 10:47:13;;;;;;;2.15;1.08;;;19.00;99.90;;;;;;4808958;29;20068;-91
2022/04/06 10:49:40;;;;;;;2.35;0.68;;;19.00;99.90;;;;;;4808841;29;20061;-92
2022/04/06 10:52:25;;;;;;;2.72;0.63;;;19.10;99.90;;;;;;4808892;29;20038;-90
2022/04/06 10:54:52;;;;;;;2.33;0.95;;;18.90;99.90;;;;;;4808817;29;20045;-90
2022/04/06 10:57:20;;;;;;;2.30;0.60;;;18.90;99.90;;;;;;4794158;29;20086;-90
2022/04/06 11:00:15;;;;;;;0.43;0.38;;;18.90;99.90;;;;;;4794058;29;20183;-92
2022/04/06 11:02:50;;;;;;;1.20;0.73;;;18.80;99.90;;;;;;4808286;29;20038;-93
2022/04/06 11:05:40;;;;;;;1.13;0.50;;;18.90;99.90;;;;;;4808771;29;20047;-90
2022/04/06 11:10:49;;;;;;;0.88;0.52;;;19.10;99.90;;;;;;5477388;23;20057;-90
2022/04/06 11:13:16;;;;;;;0.95;0.70;;;19.10;99.90;;;;;;4882626;29;20032;-89
2022/04/06 11:15:51;;;;;;;3.22;0.50;;;18.90;99.90;;;;;;4882522;29;20036;-89
2022/04/06 11:18:50;;;;;;;1.88;0.68;;;18.90;99.90;;;;;;4882563;29;20060;-91
2022/04/06 11:21:16;;;;;;;1.10;0.85;;;19.00;99.90;;;;;;4882575;29;20028;-90
2022/04/06 11:23:43;;;;;;;0.73;0.68;;;19.10;99.90;;;;;;4882492;29;20025;-89
2022/04/06 11:26:09;;;;;;;1.73;0.70;;;19.00;99.90;;;;;;4882494;29;20036;-89
2022/04/06 11:28:36;;;;;;;0.40;0.40;;;19.10;99.90;;;;;;4882443;29;20393;-90
2022/04/06 11:31:03;;;;;;;1.02;0.63;;;19.10;99.90;;;;;;4882690;29;20029;-91
2022/04/06 11:33:45;;;;;;;0.52;0.52;;;19.10;99.90;;;;;;4882645;29;20104;-89
2022/04/06 11:36:19;;;;;;;1.55;0.95;;;19.10;99.90;;;;;;4882787;29;20036;-91
2022/04/06 11:38:54;;;;;;;3.35;1.30;;;19.20;99.90;;;;;;4882555;29;20039;-90
2022/04/06 11:41:20;;;;;;;0.70;0.60;;;19.10;99.90;;;;;;4882290;29;20041;-90
2022/04/06 11:43:50;;;;;;;5.95;0.50;;;19.00;99.90;;;;;;4882403;29;20486;-89
2022/04/06 11:46:17;;;;;;;3.60;0.88;;;19.00;99.90;;;;;;4882327;29;20033;-89
2022/04/06 11:48:46;;;;;;;4.95;1.20;;;18.90;99.90;;;;;;4883360;29;20107;-95
2022/04/06 11:51:15;;;;;;;3.22;0.85;;;18.90;99.90;;;;;;4882328;29;20124;-91
2022/04/06 11:53:42;;;;;;;2.20;1.02;;;18.90;99.90;;;;;;4882158;29;20115;-89
2022/04/06 11:56:08;;;;;;;2.53;0.80;;;18.90;99.90;;;;;;4882364;29;20029;-89
2022/04/06 11:58:39;;;;;;;1.02;0.52;;;18.80;99.90;;;;;;4882458;29;20501;-88
2022/04/06 12:01:10;;;;;;;2.20;1.02;;;19.00;99.90;;;;;;4882297;29;20043;-91
2022/04/06 12:03:42;;;;;;;1.52;0.90;;;19.00;99.90;;;;;;4882035;29;20051;-89
2022/04/06 12:06:10;;;;;;;1.30;1.02;;;19.00;99.90;;;;;;4882235;29;20038;-90
2022/04/06 12:08:38;;;;;;;1.00;0.80;;;19.00;99.90;;;;;;4882043;29;20028;-90
2022/04/06 12:11:07;;;;;;;1.70;0.90;;;18.80;99.90;;;;;;4881842;29;20152;-90
2022/04/06 12:13:41;;;;;;;1.67;0.88;;;18.80;99.90;;;;;;4882734;29;20029;-92
2022/04/06 12:16:09;;;;;;;1.58;1.10;;;18.80;99.90;;;;;;4885777;29;20036;-91
2022/04/06 12:18:38;;;;;;;2.17;0.90;;;18.80;99.90;;;;;;4885811;29;20032;-91
2022/04/06 12:21:22;;;;;;;3.20;0.98;;;18.70;99.90;;;;;;4885683;29;20033;-90
2022/04/06 12:23:50;;;;;;;0.90;0.70;;;18.70;99.90;;;;;;4886310;29;20048;-89
2022/04/06 12:26:16;;;;;;;1.00;0.90;;;18.70;99.90;;;;;;4885919;29;20439;-90
2022/04/06 12:28:46;;;;;;;0.93;0.85;;;18.70;99.90;;;;;;4885678;29;20032;-89
2022/04/06 12:31:12;;;;;;;0.77;0.75;;;18.70;99.90;;;;;;4885378;29;20394;-89
2022/04/06 12:33:41;;;;;;;3.80;2.03;;;18.70;99.90;;;;;;4885522;29;20406;-89
2022/04/06 12:36:15;;;;;;;2.15;1.10;;;18.80;99.90;;;;;;4885594;29;20029;-89
2022/04/06 12:39:15;;;;;;;0.82;0.80;;;18.90;99.90;;;;;;4885411;29;20025;-89
2022/04/06 12:41:57;;;;;;;1.55;1.25;;;19.00;99.90;;;;;;4814209;29;20042;-91
2022/04/06 12:44:24;;;;;;;4.43;1.20;;;19.00;99.90;;;;;;4814422;29;20045;-89
2022/04/06 12:46:53;;;;;;;4.30;1.42;;;19.00;99.90;;;;;;4814893;29;20144;-93
2022/04/06 12:49:36;;;;;;;3.38;1.10;;;19.10;99.90;;;;;;4814239;29;20589;-92
2022/04/06 12:52:24;;;;;;;3.78;1.00;;;19.10;99.90;;;;;;4814292;29;20042;-90
2022/04/06 12:55:03;;;;;;;2.83;0.90;;;19.00;99.90;;;;;;4828998;29;20674;-94
2022/04/06 12:57:32;;;;;;;1.65;1.00;;;18.70;99.90;;;;;;4814040;29;20476;-90
2022/04/06 13:00:13;;;;;;;1.83;0.88;;;18.70;99.90;;;;;;4814190;29;20029;-92
2022/04/06 13:02:50;;;;;;;1.23;1.08;;;18.60;99.90;;;;;;4814036;29;20134;-91
2022/04/06 13:05:18;;;;;;;1.58;1.00;;;18.50;99.90;;;;;;4814740;29;20396;-90
2022/04/06 13:07:47;;;;;;;1.52;1.15;;;18.60;99.90;;;;;;4814321;29;20057;-91
2022/04/06 13:10:19;;;;;;;2.30;1.38;;;18.50;99.90;;;;;;4813670;29;20061;-91
2022/04/06 13:12:47;;;;;;;3.90;0.90;;;18.40;99.90;;;;;;4814548;29;20030;-90
2022/04/06 13:15:15;;;;;;;1.92;1.17;;;18.40;99.90;;;;;;4814111;29;20034;-89
2022/04/06 13:17:43;;;;;;;3.72;0.90;;;18.40;99.90;;;;;;4836058;29;20041;-92
2022/04/06 13:20:12;;;;;;;5.25;1.55;;;18.40;99.90;;;;;;4890628;29;20038;-90
2022/04/06 13:22:40;;;;;;;2.10;1.10;;;18.40;99.90;;;;;;4895517;29;20037;-89
2022/04/06 13:25:10;;;;;;;1.60;0.93;;;18.20;99.90;;;;;;4884972;29;20029;-90
2022/04/06 13:27:37;;;;;;;2.90;0.95;;;18.20;99.90;;;;;;4884851;29;20033;-91
2022/04/06 13:30:23;;;;;;;2.58;1.00;;;18.30;99.90;;;;;;4884472;29;20123;-92
2022/04/06 13:32:50;;;;;;;4.95;0.90;;;18.30;99.90;;;;;;4884506;29;20065;-91
2022/04/06 13:35:18;;;;;;;1.42;1.05;;;18.40;99.90;;;;;;4884408;29;20033;-92
2022/04/06 13:37:44;;;;;;;1.25;1.00;;;18.30;99.90;;;;;;4884472;29;20025;-90
2022/04/06 13:40:12;;;;;;;2.70;1.00;;;18.40;99.90;;;;;;4884468;29;20036;-89
2022/04/06 13:42:39;;;;;;;2.95;1.08;;;18.40;99.90;;;;;;4884318;29;20301;-90
2022/04/06 13:45:06;;;;;;;1.83;0.63;;;18.40;99.90;;;;;;4884153;29;20036;-90
2022/04/06 13:47:34;;;;;;;3.97;1.30;;;18.40;99.90;;;;;;4884355;29;20044;-91
2022/04/06 13:50:00;;;;;;;4.13;0.82;;;18.10;99.90;;;;;;4884106;29;20040;-91
2022/04/06 13:52:27;;;;;;;3.00;1.40;;;17.90;99.90;;;;;;4884137;29;20529;-89
2022/04/06 13:54:53;;;;;;;1.50;0.90;;;17.80;99.90;;;;;;4883923;29;20040;-88
2022/04/06 13:57:19;;;;;;;1.80;1.23;;;17.70;99.90;;;;;;4884130;29;20087;-90
2022/04/06 13:59:46;;;;;;;3.35;1.00;;;17.80;99.90;;;;;;4884152;29;20029;-90
2022/04/06 14:02:13;;;;;;;2.95;1.15;;;17.60;99.90;;;;;;4883858;29;20486;-89
2022/04/06 14:04:40;;;;;;;7.80;1.58;;;17.60;99.90;;;;;;4883929;29;20037;-91
2022/04/06 14:07:06;;;;;;;6.13;1.60;;;17.60;99.90;;;;;;4884004;29;20375;-90
2022/04/06 14:09:33;;;;;;;2.45;0.90;;;17.60;99.90;;;;;;4884056;29;20041;-90
2022/04/06 14:12:01;;;;;;;3.53;1.10;;;17.50;99.90;;;;;;4883554;29;20087;-90
2022/04/06 14:14:27;;;;;;;1.70;1.38;;;17.50;99.90;;;;;;4883855;29;20032;-90
2022/04/06 14:16:53;;;;;;;1.23;0.88;;;17.50;99.90;;;;;;4883887;29;20036;-90
2022/04/06 14:19:20;;;;;;;1.13;0.70;;;17.50;99.90;;;;;;4883711;29;20131;-91
2022/04/06 14:21:46;;;;;;;2.25;1.02;;;17.60;99.90;;;;;;4883618;29;20033;-88